sensor_id;sensor_type;location;lat;lon;timestamp;P1;durP1;ratioP1;P2;durP2;ratioP2
55222;SDS011;41090;48.632;12.428;2023-09-19T00:00:15;2.87;;;1.60;;
55222;SDS011;41090;48.632;12.428;2023-09-19T00:02:40;2.90;;;1.70;;
55222;SDS011;41090;48.632;12.428;2023-09-19T00:05:06;2.17;;;1.70;;
55222;SDS011;41090;48.632;12.428;2023-09-19T00:07:31;4.63;;;1.97;;
55222;SDS011;41090;48.632;12.428;2023-09-19T00:09:56;2.73;;;1.93;;
55222;SDS011;41090;48.632;12.428;2023-09-19T00:12:21;3.97;;;1.90;;
55222;SDS011;41090;48.632;12.428;2023-09-19T00:14:47;2.63;;;1.57;;
55222;SDS011;41090;48.632;12.428;2023-09-19T00:17:12;1.97;;;1.70;;
55222;SDS011;41090;48.632;12.428;2023-09-19T00:19:38;2.70;;;1.93;;
55222;SDS011;41090;48.632;12.428;2023-09-19T00:22:03;2.10;;;1.90;;
55222;SDS011;41090;48.632;12.428;2023-09-19T00:24:29;2.53;;;1.87;;
55222;SDS011;41090;48.632;12.428;2023-09-19T00:26:54;6.67;;;2.27;;
55222;SDS011;41090;48.632;12.428;2023-09-19T00:29:20;4.50;;;2.10;;
55222;SDS011;41090;48.632;12.428;2023-09-19T00:31:46;2.53;;;2.00;;
55222;SDS011;41090;48.632;12.428;2023-09-19T00:34:11;3.20;;;1.80;;
55222;SDS011;41090;48.632;12.428;2023-09-19T00:36:37;3.63;;;1.80;;
55222;SDS011;41090;48.632;12.428;2023-09-19T00:39:04;3.10;;;2.10;;
55222;SDS011;41090;48.632;12.428;2023-09-19T00:41:31;2.90;;;1.83;;
55222;SDS011;41090;48.632;12.428;2023-09-19T00:43:56;2.50;;;1.83;;
55222;SDS011;41090;48.632;12.428;2023-09-19T00:46:21;2.90;;;1.80;;
55222;SDS011;41090;48.632;12.428;2023-09-19T00:48:46;3.80;;;1.77;;
55222;SDS011;41090;48.632;12.428;2023-09-19T00:51:12;2.70;;;1.57;;
55222;SDS011;41090;48.632;12.428;2023-09-19T00:53:39;7.10;;;1.90;;
55222;SDS011;41090;48.632;12.428;2023-09-19T00:56:04;2.03;;;1.83;;
55222;SDS011;41090;48.632;12.428;2023-09-19T00:58:33;2.10;;;1.80;;
55222;SDS011;41090;48.632;12.428;2023-09-19T01:00:59;2.37;;;1.70;;
55222;SDS011;41090;48.632;12.428;2023-09-19T01:03:24;2.97;;;2.10;;
55222;SDS011;41090;48.632;12.428;2023-09-19T01:05:49;2.57;;;1.93;;
55222;SDS011;41090;48.632;12.428;2023-09-19T01:08:15;5.40;;;2.40;;
55222;SDS011;41090;48.632;12.428;2023-09-19T01:10:44;3.83;;;2.13;;
55222;SDS011;41090;48.632;12.428;2023-09-19T01:21:29;3.17;;;2.00;;
55222;SDS011;41090;48.632;12.428;2023-09-19T01:31:33;3.43;;;2.10;;
55222;SDS011;41090;48.632;12.428;2023-09-19T01:34:01;2.50;;;2.03;;
55222;SDS011;41090;48.632;12.428;2023-09-19T01:36:32;2.93;;;2.17;;
55222;SDS011;41090;48.632;12.428;2023-09-19T01:39:05;4.33;;;1.80;;
55222;SDS011;41090;48.632;12.428;2023-09-19T01:44:17;3.80;;;2.07;;
55222;SDS011;41090;48.632;12.428;2023-09-19T01:46:44;4.33;;;2.13;;
55222;SDS011;41090;48.632;12.428;2023-09-19T01:49:15;2.63;;;2.00;;
55222;SDS011;41090;48.632;12.428;2023-09-19T01:51:51;3.50;;;1.80;;
55222;SDS011;41090;48.632;12.428;2023-09-19T01:54:18;2.07;;;1.83;;
55222;SDS011;41090;48.632;12.428;2023-09-19T01:56:51;2.37;;;1.90;;
55222;SDS011;41090;48.632;12.428;2023-09-19T01:59:17;2.73;;;2.10;;
55222;SDS011;41090;48.632;12.428;2023-09-19T02:01:46;4.70;;;1.90;;
55222;SDS011;41090;48.632;12.428;2023-09-19T02:04:12;2.90;;;2.00;;
55222;SDS011;41090;48.632;12.428;2023-09-19T02:06:41;2.70;;;2.27;;
55222;SDS011;41090;48.632;12.428;2023-09-19T02:09:07;2.57;;;2.13;;
55222;SDS011;41090;48.632;12.428;2023-09-19T02:11:32;4.13;;;2.20;;
55222;SDS011;41090;48.632;12.428;2023-09-19T02:13:57;2.90;;;2.00;;
55222;SDS011;41090;48.632;12.428;2023-09-19T02:16:24;2.30;;;1.93;;
55222;SDS011;41090;48.632;12.428;2023-09-19T02:18:49;2.60;;;1.97;;
55222;SDS011;41090;48.632;12.428;2023-09-19T02:21:15;4.20;;;2.00;;
55222;SDS011;41090;48.632;12.428;2023-09-19T02:23:42;3.90;;;2.10;;
55222;SDS011;41090;48.632;12.428;2023-09-19T02:26:07;3.00;;;2.00;;
55222;SDS011;41090;48.632;12.428;2023-09-19T02:28:32;2.67;;;1.90;;
55222;SDS011;41090;48.632;12.428;2023-09-19T02:30:58;3.87;;;2.03;;
55222;SDS011;41090;48.632;12.428;2023-09-19T02:33:23;4.27;;;2.10;;
55222;SDS011;41090;48.632;12.428;2023-09-19T02:35:48;5.80;;;2.10;;
55222;SDS011;41090;48.632;12.428;2023-09-19T02:38:13;5.00;;;2.10;;
55222;SDS011;41090;48.632;12.428;2023-09-19T02:40:39;2.27;;;2.00;;
55222;SDS011;41090;48.632;12.428;2023-09-19T02:43:05;3.67;;;2.10;;
55222;SDS011;41090;48.632;12.428;2023-09-19T02:45:30;4.00;;;1.97;;
55222;SDS011;41090;48.632;12.428;2023-09-19T02:47:55;2.57;;;2.03;;
55222;SDS011;41090;48.632;12.428;2023-09-19T02:50:21;2.60;;;1.97;;
55222;SDS011;41090;48.632;12.428;2023-09-19T02:52:46;2.87;;;2.27;;
55222;SDS011;41090;48.632;12.428;2023-09-19T02:55:17;2.60;;;1.90;;
55222;SDS011;41090;48.632;12.428;2023-09-19T02:57:50;2.50;;;1.93;;
55222;SDS011;41090;48.632;12.428;2023-09-19T03:00:16;2.77;;;2.10;;
55222;SDS011;41090;48.632;12.428;2023-09-19T03:02:49;3.10;;;1.83;;
55222;SDS011;41090;48.632;12.428;2023-09-19T03:05:15;4.73;;;2.30;;
55222;SDS011;41090;48.632;12.428;2023-09-19T03:07:40;3.67;;;2.10;;
55222;SDS011;41090;48.632;12.428;2023-09-19T03:10:07;4.17;;;2.20;;
55222;SDS011;41090;48.632;12.428;2023-09-19T03:12:32;2.10;;;1.83;;
55222;SDS011;41090;48.632;12.428;2023-09-19T03:14:58;2.20;;;2.00;;
55222;SDS011;41090;48.632;12.428;2023-09-19T03:17:24;4.03;;;2.00;;
55222;SDS011;41090;48.632;12.428;2023-09-19T03:19:50;5.80;;;2.33;;
55222;SDS011;41090;48.632;12.428;2023-09-19T03:22:15;2.30;;;2.03;;
55222;SDS011;41090;48.632;12.428;2023-09-19T03:24:41;2.40;;;2.17;;
55222;SDS011;41090;48.632;12.428;2023-09-19T03:27:08;4.30;;;2.10;;
55222;SDS011;41090;48.632;12.428;2023-09-19T03:29:34;2.30;;;2.03;;
55222;SDS011;41090;48.632;12.428;2023-09-19T03:31:59;2.43;;;1.83;;
55222;SDS011;41090;48.632;12.428;2023-09-19T03:34:24;3.30;;;1.87;;
55222;SDS011;41090;48.632;12.428;2023-09-19T03:36:49;3.40;;;1.83;;
55222;SDS011;41090;48.632;12.428;2023-09-19T03:39:15;2.23;;;1.80;;
55222;SDS011;41090;48.632;12.428;2023-09-19T03:41:41;2.10;;;1.80;;
55222;SDS011;41090;48.632;12.428;2023-09-19T03:44:06;3.37;;;1.90;;
55222;SDS011;41090;48.632;12.428;2023-09-19T03:46:32;1.97;;;1.80;;
55222;SDS011;41090;48.632;12.428;2023-09-19T03:48:57;2.43;;;1.90;;
55222;SDS011;41090;48.632;12.428;2023-09-19T03:51:23;2.77;;;1.80;;
55222;SDS011;41090;48.632;12.428;2023-09-19T03:53:48;2.50;;;1.90;;
55222;SDS011;41090;48.632;12.428;2023-09-19T03:56:15;3.37;;;1.97;;
55222;SDS011;41090;48.632;12.428;2023-09-19T03:58:40;2.10;;;1.90;;
55222;SDS011;41090;48.632;12.428;2023-09-19T04:01:05;3.20;;;1.90;;
55222;SDS011;41090;48.632;12.428;2023-09-19T04:03:32;1.93;;;1.70;;
55222;SDS011;41090;48.632;12.428;2023-09-19T04:06:11;2.60;;;1.80;;
55222;SDS011;41090;48.632;12.428;2023-09-19T04:08:36;2.70;;;1.80;;
55222;SDS011;41090;48.632;12.428;2023-09-19T04:11:02;2.40;;;1.77;;
55222;SDS011;41090;48.632;12.428;2023-09-19T04:13:27;2.90;;;1.70;;
55222;SDS011;41090;48.632;12.428;2023-09-19T04:15:53;2.93;;;1.90;;
55222;SDS011;41090;48.632;12.428;2023-09-19T04:18:18;2.30;;;1.90;;
55222;SDS011;41090;48.632;12.428;2023-09-19T04:20:49;3.47;;;1.80;;
55222;SDS011;41090;48.632;12.428;2023-09-19T04:23:14;3.63;;;1.90;;
55222;SDS011;41090;48.632;12.428;2023-09-19T04:25:40;2.00;;;1.80;;
55222;SDS011;41090;48.632;12.428;2023-09-19T04:28:05;2.93;;;2.00;;
55222;SDS011;41090;48.632;12.428;2023-09-19T04:30:31;2.30;;;1.90;;
55222;SDS011;41090;48.632;12.428;2023-09-19T04:32:57;3.53;;;2.17;;
55222;SDS011;41090;48.632;12.428;2023-09-19T04:35:22;2.20;;;2.00;;
55222;SDS011;41090;48.632;12.428;2023-09-19T04:37:47;2.40;;;1.77;;
55222;SDS011;41090;48.632;12.428;2023-09-19T04:40:13;2.63;;;2.03;;
55222;SDS011;41090;48.632;12.428;2023-09-19T04:42:42;2.57;;;2.13;;
55222;SDS011;41090;48.632;12.428;2023-09-19T04:45:08;3.80;;;1.97;;
55222;SDS011;41090;48.632;12.428;2023-09-19T04:47:36;2.43;;;1.80;;
55222;SDS011;41090;48.632;12.428;2023-09-19T04:50:04;3.10;;;1.93;;
55222;SDS011;41090;48.632;12.428;2023-09-19T04:52:30;2.10;;;1.90;;
55222;SDS011;41090;48.632;12.428;2023-09-19T04:54:56;2.00;;;1.70;;
55222;SDS011;41090;48.632;12.428;2023-09-19T04:57:21;2.10;;;1.83;;
55222;SDS011;41090;48.632;12.428;2023-09-19T04:59:46;2.17;;;1.80;;
55222;SDS011;41090;48.632;12.428;2023-09-19T05:02:12;2.20;;;2.00;;
55222;SDS011;41090;48.632;12.428;2023-09-19T05:04:37;2.20;;;1.73;;
55222;SDS011;41090;48.632;12.428;2023-09-19T05:07:02;5.97;;;1.80;;
55222;SDS011;41090;48.632;12.428;2023-09-19T05:09:28;3.73;;;2.10;;
55222;SDS011;41090;48.632;12.428;2023-09-19T05:11:53;3.20;;;1.97;;
55222;SDS011;41090;48.632;12.428;2023-09-19T05:14:19;2.27;;;2.07;;
55222;SDS011;41090;48.632;12.428;2023-09-19T05:16:45;2.60;;;2.00;;
55222;SDS011;41090;48.632;12.428;2023-09-19T05:19:11;3.03;;;1.90;;
55222;SDS011;41090;48.632;12.428;2023-09-19T05:21:37;2.97;;;2.00;;
55222;SDS011;41090;48.632;12.428;2023-09-19T05:24:04;3.00;;;1.80;;
55222;SDS011;41090;48.632;12.428;2023-09-19T05:26:31;3.00;;;2.00;;
55222;SDS011;41090;48.632;12.428;2023-09-19T05:28:56;2.63;;;1.83;;
55222;SDS011;41090;48.632;12.428;2023-09-19T05:31:22;2.03;;;1.83;;
55222;SDS011;41090;48.632;12.428;2023-09-19T05:33:48;2.73;;;2.10;;
55222;SDS011;41090;48.632;12.428;2023-09-19T05:36:13;2.97;;;2.20;;
55222;SDS011;41090;48.632;12.428;2023-09-19T05:38:41;2.60;;;2.10;;
55222;SDS011;41090;48.632;12.428;2023-09-19T05:41:07;4.20;;;2.10;;
55222;SDS011;41090;48.632;12.428;2023-09-19T05:43:34;4.53;;;2.37;;
55222;SDS011;41090;48.632;12.428;2023-09-19T05:46:02;2.33;;;2.10;;
55222;SDS011;41090;48.632;12.428;2023-09-19T05:48:28;3.57;;;2.20;;
55222;SDS011;41090;48.632;12.428;2023-09-19T05:50:53;3.63;;;2.10;;
55222;SDS011;41090;48.632;12.428;2023-09-19T05:53:18;5.70;;;2.30;;
55222;SDS011;41090;48.632;12.428;2023-09-19T05:55:43;3.77;;;2.23;;
55222;SDS011;41090;48.632;12.428;2023-09-19T05:58:09;5.10;;;2.30;;
55222;SDS011;41090;48.632;12.428;2023-09-19T06:00:35;3.77;;;2.60;;
55222;SDS011;41090;48.632;12.428;2023-09-19T06:03:01;2.60;;;2.10;;
55222;SDS011;41090;48.632;12.428;2023-09-19T06:05:27;2.60;;;2.33;;
55222;SDS011;41090;48.632;12.428;2023-09-19T06:07:53;2.63;;;2.33;;
55222;SDS011;41090;48.632;12.428;2023-09-19T06:10:18;2.97;;;1.97;;
55222;SDS011;41090;48.632;12.428;2023-09-19T06:12:45;3.47;;;2.17;;
55222;SDS011;41090;48.632;12.428;2023-09-19T06:15:11;3.43;;;2.20;;
55222;SDS011;41090;48.632;12.428;2023-09-19T06:17:53;3.03;;;2.60;;
55222;SDS011;41090;48.632;12.428;2023-09-19T06:20:24;2.43;;;2.00;;
55222;SDS011;41090;48.632;12.428;2023-09-19T06:22:50;4.33;;;2.20;;
55222;SDS011;41090;48.632;12.428;2023-09-19T06:25:15;2.43;;;2.07;;
55222;SDS011;41090;48.632;12.428;2023-09-19T06:27:44;3.13;;;2.30;;
55222;SDS011;41090;48.632;12.428;2023-09-19T06:30:10;2.77;;;2.40;;
55222;SDS011;41090;48.632;12.428;2023-09-19T06:32:36;2.40;;;2.20;;
55222;SDS011;41090;48.632;12.428;2023-09-19T06:35:01;4.77;;;2.60;;
55222;SDS011;41090;48.632;12.428;2023-09-19T06:37:28;3.97;;;2.00;;
55222;SDS011;41090;48.632;12.428;2023-09-19T06:39:53;4.00;;;2.10;;
55222;SDS011;41090;48.632;12.428;2023-09-19T06:42:18;4.10;;;2.40;;
55222;SDS011;41090;48.632;12.428;2023-09-19T06:44:44;2.13;;;1.80;;
55222;SDS011;41090;48.632;12.428;2023-09-19T06:47:09;4.33;;;2.10;;
55222;SDS011;41090;48.632;12.428;2023-09-19T06:49:35;3.57;;;2.20;;
55222;SDS011;41090;48.632;12.428;2023-09-19T06:52:00;3.50;;;2.10;;
55222;SDS011;41090;48.632;12.428;2023-09-19T06:54:26;2.70;;;2.17;;
55222;SDS011;41090;48.632;12.428;2023-09-19T06:56:54;2.63;;;2.10;;
55222;SDS011;41090;48.632;12.428;2023-09-19T06:59:20;2.63;;;1.83;;
55222;SDS011;41090;48.632;12.428;2023-09-19T07:01:45;3.42;;;2.00;;
55222;SDS011;41090;48.632;12.428;2023-09-19T07:04:12;4.65;;;2.03;;
55222;SDS011;41090;48.632;12.428;2023-09-19T07:06:37;2.78;;;2.00;;
55222;SDS011;41090;48.632;12.428;2023-09-19T07:09:03;3.25;;;1.60;;
55222;SDS011;41090;48.632;12.428;2023-09-19T07:11:29;3.22;;;2.15;;
55222;SDS011;41090;48.632;12.428;2023-09-19T07:13:56;3.22;;;1.92;;
55222;SDS011;41090;48.632;12.428;2023-09-19T07:16:21;3.72;;;1.88;;
55222;SDS011;41090;48.632;12.428;2023-09-19T07:18:54;3.25;;;2.03;;
55222;SDS011;41090;48.632;12.428;2023-09-19T07:21:20;2.75;;;1.60;;
55222;SDS011;41090;48.632;12.428;2023-09-19T07:23:45;2.75;;;1.98;;
55222;SDS011;41090;48.632;12.428;2023-09-19T07:26:10;2.53;;;1.75;;
55222;SDS011;41090;48.632;12.428;2023-09-19T07:28:35;2.97;;;1.90;;
55222;SDS011;41090;48.632;12.428;2023-09-19T07:31:02;2.13;;;1.45;;
55222;SDS011;41090;48.632;12.428;2023-09-19T07:33:28;2.13;;;1.80;;
55222;SDS011;41090;48.632;12.428;2023-09-19T07:35:53;2.08;;;1.65;;
55222;SDS011;41090;48.632;12.428;2023-09-19T07:38:18;3.45;;;1.90;;
55222;SDS011;41090;48.632;12.428;2023-09-19T07:40:44;2.47;;;1.80;;
55222;SDS011;41090;48.632;12.428;2023-09-19T07:43:09;2.05;;;1.83;;
55222;SDS011;41090;48.632;12.428;2023-09-19T07:45:34;2.05;;;1.65;;
55222;SDS011;41090;48.632;12.428;2023-09-19T07:48:01;2.50;;;1.77;;
55222;SDS011;41090;48.632;12.428;2023-09-19T07:50:31;2.10;;;1.88;;
55222;SDS011;41090;48.632;12.428;2023-09-19T07:52:57;3.58;;;1.70;;
55222;SDS011;41090;48.632;12.428;2023-09-19T07:55:23;2.28;;;1.90;;
55222;SDS011;41090;48.632;12.428;2023-09-19T07:57:50;3.15;;;2.00;;
55222;SDS011;41090;48.632;12.428;2023-09-19T08:00:15;3.20;;;1.90;;
55222;SDS011;41090;48.632;12.428;2023-09-19T08:02:41;1.90;;;1.67;;
55222;SDS011;41090;48.632;12.428;2023-09-19T08:05:07;3.47;;;1.63;;
55222;SDS011;41090;48.632;12.428;2023-09-19T08:07:38;1.80;;;1.70;;
55222;SDS011;41090;48.632;12.428;2023-09-19T08:10:04;3.33;;;1.88;;
55222;SDS011;41090;48.632;12.428;2023-09-19T08:12:29;2.45;;;1.60;;
55222;SDS011;41090;48.632;12.428;2023-09-19T08:14:55;2.78;;;1.60;;
55222;SDS011;41090;48.632;12.428;2023-09-19T08:17:20;1.90;;;1.60;;
55222;SDS011;41090;48.632;12.428;2023-09-19T08:19:47;1.75;;;1.65;;
55222;SDS011;41090;48.632;12.428;2023-09-19T08:22:14;2.05;;;1.70;;
55222;SDS011;41090;48.632;12.428;2023-09-19T08:24:42;1.70;;;1.50;;
55222;SDS011;41090;48.632;12.428;2023-09-19T08:27:08;1.63;;;1.52;;
55222;SDS011;41090;48.632;12.428;2023-09-19T08:29:35;1.80;;;1.60;;
55222;SDS011;41090;48.632;12.428;2023-09-19T08:32:00;2.17;;;1.70;;
55222;SDS011;41090;48.632;12.428;2023-09-19T08:34:25;2.53;;;1.60;;
55222;SDS011;41090;48.632;12.428;2023-09-19T08:36:51;1.83;;;1.60;;
55222;SDS011;41090;48.632;12.428;2023-09-19T08:39:17;2.20;;;1.60;;
55222;SDS011;41090;48.632;12.428;2023-09-19T08:41:44;1.65;;;1.55;;
55222;SDS011;41090;48.632;12.428;2023-09-19T08:44:09;2.50;;;1.55;;
55222;SDS011;41090;48.632;12.428;2023-09-19T08:46:35;2.00;;;1.60;;
55222;SDS011;41090;48.632;12.428;2023-09-19T08:49:04;1.70;;;1.60;;
55222;SDS011;41090;48.632;12.428;2023-09-19T08:51:32;2.33;;;1.55;;
55222;SDS011;41090;48.632;12.428;2023-09-19T08:54:07;2.85;;;1.60;;
55222;SDS011;41090;48.632;12.428;2023-09-19T08:56:33;1.90;;;1.60;;
55222;SDS011;41090;48.632;12.428;2023-09-19T08:59:04;1.73;;;1.40;;
55222;SDS011;41090;48.632;12.428;2023-09-19T09:01:32;3.25;;;1.60;;
55222;SDS011;41090;48.632;12.428;2023-09-19T09:03:58;2.05;;;1.70;;
55222;SDS011;41090;48.632;12.428;2023-09-19T09:06:24;1.73;;;1.50;;
55222;SDS011;41090;48.632;12.428;2023-09-19T09:08:50;2.28;;;1.70;;
55222;SDS011;41090;48.632;12.428;2023-09-19T09:11:15;3.53;;;1.40;;
55222;SDS011;41090;48.632;12.428;2023-09-19T09:13:42;1.52;;;1.42;;
55222;SDS011;41090;48.632;12.428;2023-09-19T09:16:08;4.05;;;2.22;;
55222;SDS011;41090;48.632;12.428;2023-09-19T09:18:34;2.72;;;1.83;;
55222;SDS011;41090;48.632;12.428;2023-09-19T09:21:00;3.15;;;1.70;;
55222;SDS011;41090;48.632;12.428;2023-09-19T09:23:26;3.15;;;1.60;;
55222;SDS011;41090;48.632;12.428;2023-09-19T09:25:54;2.33;;;1.60;;
55222;SDS011;41090;48.632;12.428;2023-09-19T09:28:20;1.85;;;1.50;;
55222;SDS011;41090;48.632;12.428;2023-09-19T09:30:46;2.38;;;1.58;;
55222;SDS011;41090;48.632;12.428;2023-09-19T09:33:11;1.60;;;1.30;;
55222;SDS011;41090;48.632;12.428;2023-09-19T09:35:58;1.48;;;1.20;;
55222;SDS011;41090;48.632;12.428;2023-09-19T09:38:25;1.40;;;1.30;;
55222;SDS011;41090;48.632;12.428;2023-09-19T09:40:58;1.40;;;1.30;;
55222;SDS011;41090;48.632;12.428;2023-09-19T09:43:34;1.45;;;1.25;;
55222;SDS011;41090;48.632;12.428;2023-09-19T09:48:35;1.55;;;1.40;;
55222;SDS011;41090;48.632;12.428;2023-09-19T09:51:04;1.58;;;1.15;;
55222;SDS011;41090;48.632;12.428;2023-09-19T09:53:32;2.60;;;1.45;;
55222;SDS011;41090;48.632;12.428;2023-09-19T09:55:59;1.33;;;1.23;;
55222;SDS011;41090;48.632;12.428;2023-09-19T09:58:30;3.17;;;1.38;;
55222;SDS011;41090;48.632;12.428;2023-09-19T10:00:57;2.03;;;1.40;;
55222;SDS011;41090;48.632;12.428;2023-09-19T10:03:30;3.50;;;1.40;;
55222;SDS011;41090;48.632;12.428;2023-09-19T10:05:56;1.50;;;1.40;;
55222;SDS011;41090;48.632;12.428;2023-09-19T10:08:23;1.90;;;1.40;;
55222;SDS011;41090;48.632;12.428;2023-09-19T10:10:48;1.67;;;1.30;;
55222;SDS011;41090;48.632;12.428;2023-09-19T10:13:28;1.20;;;1.10;;
55222;SDS011;41090;48.632;12.428;2023-09-19T10:15:55;2.03;;;1.40;;
55222;SDS011;41090;48.632;12.428;2023-09-19T10:18:22;2.83;;;1.38;;
55222;SDS011;41090;48.632;12.428;2023-09-19T10:20:48;3.13;;;1.55;;
55222;SDS011;41090;48.632;12.428;2023-09-19T10:23:14;4.68;;;1.73;;
55222;SDS011;41090;48.632;12.428;2023-09-19T10:25:47;1.77;;;1.30;;
55222;SDS011;41090;48.632;12.428;2023-09-19T10:28:15;1.35;;;1.25;;
55222;SDS011;41090;48.632;12.428;2023-09-19T10:30:41;1.92;;;1.33;;
55222;SDS011;41090;48.632;12.428;2023-09-19T10:33:09;1.98;;;1.30;;
55222;SDS011;41090;48.632;12.428;2023-09-19T10:35:34;4.00;;;1.20;;
55222;SDS011;41090;48.632;12.428;2023-09-19T10:38:03;2.47;;;1.23;;
55222;SDS011;41090;48.632;12.428;2023-09-19T10:40:28;1.50;;;1.10;;
55222;SDS011;41090;48.632;12.428;2023-09-19T10:42:59;2.28;;;1.30;;
55222;SDS011;41090;48.632;12.428;2023-09-19T10:45:25;1.40;;;1.10;;
55222;SDS011;41090;48.632;12.428;2023-09-19T10:47:51;1.05;;;0.95;;
55222;SDS011;41090;48.632;12.428;2023-09-19T10:50:19;0.80;;;0.80;;
55222;SDS011;41090;48.632;12.428;2023-09-19T10:52:46;0.93;;;0.88;;
55222;SDS011;41090;48.632;12.428;2023-09-19T10:55:15;1.08;;;0.90;;
55222;SDS011;41090;48.632;12.428;2023-09-19T10:57:44;1.92;;;0.88;;
55222;SDS011;41090;48.632;12.428;2023-09-19T11:00:09;2.13;;;1.05;;
55222;SDS011;41090;48.632;12.428;2023-09-19T11:05:31;0.90;;;0.90;;
55222;SDS011;41090;48.632;12.428;2023-09-19T11:07:57;1.17;;;1.08;;
55222;SDS011;41090;48.632;12.428;2023-09-19T11:13:26;1.95;;;1.20;;
55222;SDS011;41090;48.632;12.428;2023-09-19T11:26:43;1.50;;;1.02;;
55222;SDS011;41090;48.632;12.428;2023-09-19T11:29:25;1.33;;;1.10;;
55222;SDS011;41090;48.632;12.428;2023-09-19T11:31:50;1.45;;;0.90;;
55222;SDS011;41090;48.632;12.428;2023-09-19T11:37:00;1.30;;;1.10;;
55222;SDS011;41090;48.632;12.428;2023-09-19T11:39:26;1.77;;;1.20;;
55222;SDS011;41090;48.632;12.428;2023-09-19T11:41:52;1.23;;;1.10;;
55222;SDS011;41090;48.632;12.428;2023-09-19T11:46:55;1.63;;;1.30;;
55222;SDS011;41090;48.632;12.428;2023-09-19T11:49:27;1.48;;;1.20;;
55222;SDS011;41090;48.632;12.428;2023-09-19T11:51:55;0.90;;;0.90;;
55222;SDS011;41090;48.632;12.428;2023-09-19T11:54:21;1.20;;;1.00;;
55222;SDS011;41090;48.632;12.428;2023-09-19T11:56:53;1.23;;;1.13;;
55222;SDS011;41090;48.632;12.428;2023-09-19T11:59:25;2.70;;;1.20;;
55222;SDS011;41090;48.632;12.428;2023-09-19T12:01:57;1.10;;;1.00;;
55222;SDS011;41090;48.632;12.428;2023-09-19T12:06:57;1.10;;;1.00;;
55222;SDS011;41090;48.632;12.428;2023-09-19T12:09:23;1.10;;;1.00;;
55222;SDS011;41090;48.632;12.428;2023-09-19T12:11:50;2.83;;;1.02;;
55222;SDS011;41090;48.632;12.428;2023-09-19T12:14:25;1.20;;;1.00;;
55222;SDS011;41090;48.632;12.428;2023-09-19T12:16:57;1.40;;;0.93;;
55222;SDS011;41090;48.632;12.428;2023-09-19T12:19:23;1.95;;;1.20;;
55222;SDS011;41090;48.632;12.428;2023-09-19T12:22:22;1.65;;;1.20;;
55222;SDS011;41090;48.632;12.428;2023-09-19T12:24:41;1.30;;;1.20;;
55222;SDS011;41090;48.632;12.428;2023-09-19T12:27:09;2.17;;;1.27;;
55222;SDS011;41090;48.632;12.428;2023-09-19T12:29:43;2.20;;;1.48;;
55222;SDS011;41090;48.632;12.428;2023-09-19T12:32:09;1.20;;;1.10;;
55222;SDS011;41090;48.632;12.428;2023-09-19T12:34:34;1.20;;;1.10;;
55222;SDS011;41090;48.632;12.428;2023-09-19T12:37:13;1.98;;;1.15;;
55222;SDS011;41090;48.632;12.428;2023-09-19T12:39:51;1.67;;;1.40;;
55222;SDS011;41090;48.632;12.428;2023-09-19T12:42:22;1.85;;;1.48;;
55222;SDS011;41090;48.632;12.428;2023-09-19T12:44:48;1.50;;;1.40;;
55222;SDS011;41090;48.632;12.428;2023-09-19T12:47:17;1.50;;;1.40;;
55222;SDS011;41090;48.632;12.428;2023-09-19T12:52:34;2.10;;;1.90;;
55222;SDS011;41090;48.632;12.428;2023-09-19T12:55:00;2.22;;;2.10;;
55222;SDS011;41090;48.632;12.428;2023-09-19T12:57:29;2.40;;;2.20;;
55222;SDS011;41090;48.632;12.428;2023-09-19T12:59:57;2.47;;;2.30;;
55222;SDS011;41090;48.632;12.428;2023-09-19T13:02:22;2.70;;;2.50;;
55222;SDS011;41090;48.632;12.428;2023-09-19T13:04:54;3.50;;;2.60;;
55222;SDS011;41090;48.632;12.428;2023-09-19T13:07:40;2.53;;;2.10;;
55222;SDS011;41090;48.632;12.428;2023-09-19T13:10:08;2.00;;;1.90;;
55222;SDS011;41090;48.632;12.428;2023-09-19T13:12:35;2.10;;;1.85;;
55222;SDS011;41090;48.632;12.428;2023-09-19T13:15:09;1.98;;;1.83;;
55222;SDS011;41090;48.632;12.428;2023-09-19T13:17:47;2.28;;;1.60;;
55222;SDS011;41090;48.632;12.428;2023-09-19T13:20:22;1.70;;;1.60;;
55222;SDS011;41090;48.632;12.428;2023-09-19T13:22:52;2.25;;;1.42;;
55222;SDS011;41090;48.632;12.428;2023-09-19T13:25:20;1.88;;;1.25;;
55222;SDS011;41090;48.632;12.428;2023-09-19T13:30:16;3.28;;;1.50;;
55222;SDS011;41090;48.632;12.428;2023-09-19T13:32:41;1.60;;;1.30;;
55222;SDS011;41090;48.632;12.428;2023-09-19T13:35:08;1.40;;;1.30;;
55222;SDS011;41090;48.632;12.428;2023-09-19T13:37:38;2.38;;;1.42;;
55222;SDS011;41090;48.632;12.428;2023-09-19T13:40:06;1.50;;;1.40;;
55222;SDS011;41090;48.632;12.428;2023-09-19T13:42:32;1.50;;;1.40;;
55222;SDS011;41090;48.632;12.428;2023-09-19T13:44:57;2.20;;;1.60;;
55222;SDS011;41090;48.632;12.428;2023-09-19T13:47:22;1.98;;;1.30;;
55222;SDS011;41090;48.632;12.428;2023-09-19T13:49:49;1.40;;;1.30;;
55222;SDS011;41090;48.632;12.428;2023-09-19T13:52:17;1.50;;;1.40;;
55222;SDS011;41090;48.632;12.428;2023-09-19T13:54:42;1.60;;;1.50;;
55222;SDS011;41090;48.632;12.428;2023-09-19T13:57:08;1.57;;;1.43;;
55222;SDS011;41090;48.632;12.428;2023-09-19T13:59:33;1.70;;;1.30;;
55222;SDS011;41090;48.632;12.428;2023-09-19T14:01:58;1.70;;;1.60;;
55222;SDS011;41090;48.632;12.428;2023-09-19T14:04:23;1.50;;;1.40;;
55222;SDS011;41090;48.632;12.428;2023-09-19T14:06:48;1.40;;;1.30;;
55222;SDS011;41090;48.632;12.428;2023-09-19T14:09:14;1.60;;;1.50;;
55222;SDS011;41090;48.632;12.428;2023-09-19T14:11:39;1.60;;;1.50;;
55222;SDS011;41090;48.632;12.428;2023-09-19T14:14:04;2.55;;;1.30;;
55222;SDS011;41090;48.632;12.428;2023-09-19T14:16:30;1.67;;;1.50;;
55222;SDS011;41090;48.632;12.428;2023-09-19T14:18:56;1.83;;;1.70;;
55222;SDS011;41090;48.632;12.428;2023-09-19T14:21:21;1.75;;;1.40;;
55222;SDS011;41090;48.632;12.428;2023-09-19T14:23:46;1.70;;;1.60;;
55222;SDS011;41090;48.632;12.428;2023-09-19T14:26:13;1.65;;;1.40;;
55222;SDS011;41090;48.632;12.428;2023-09-19T14:28:38;1.60;;;1.50;;
55222;SDS011;41090;48.632;12.428;2023-09-19T14:31:04;1.40;;;1.30;;
55222;SDS011;41090;48.632;12.428;2023-09-19T14:33:31;2.20;;;1.30;;
55222;SDS011;41090;48.632;12.428;2023-09-19T14:35:56;1.65;;;1.48;;
55222;SDS011;41090;48.632;12.428;2023-09-19T14:38:21;2.23;;;1.50;;
55222;SDS011;41090;48.632;12.428;2023-09-19T14:40:46;2.70;;;1.20;;
55222;SDS011;41090;48.632;12.428;2023-09-19T14:43:15;1.73;;;1.30;;
55222;SDS011;41090;48.632;12.428;2023-09-19T14:45:40;1.50;;;1.30;;
55222;SDS011;41090;48.632;12.428;2023-09-19T14:48:05;1.40;;;1.20;;
55222;SDS011;41090;48.632;12.428;2023-09-19T14:50:31;2.15;;;1.50;;
55222;SDS011;41090;48.632;12.428;2023-09-19T14:52:56;1.67;;;1.17;;
55222;SDS011;41090;48.632;12.428;2023-09-19T14:55:21;1.40;;;1.27;;
55222;SDS011;41090;48.632;12.428;2023-09-19T14:57:51;2.03;;;1.50;;
55222;SDS011;41090;48.632;12.428;2023-09-19T15:00:17;1.55;;;1.20;;
55222;SDS011;41090;48.632;12.428;2023-09-19T15:02:43;1.48;;;1.30;;
55222;SDS011;41090;48.632;12.428;2023-09-19T15:05:10;2.28;;;1.52;;
55222;SDS011;41090;48.632;12.428;2023-09-19T15:07:36;1.80;;;1.30;;
55222;SDS011;41090;48.632;12.428;2023-09-19T15:10:05;1.60;;;1.30;;
55222;SDS011;41090;48.632;12.428;2023-09-19T15:12:32;1.33;;;1.20;;
55222;SDS011;41090;48.632;12.428;2023-09-19T15:14:58;1.45;;;1.35;;
55222;SDS011;41090;48.632;12.428;2023-09-19T15:17:23;1.80;;;1.33;;
55222;SDS011;41090;48.632;12.428;2023-09-19T15:19:50;1.50;;;1.40;;
55222;SDS011;41090;48.632;12.428;2023-09-19T15:22:15;1.37;;;1.27;;